Main page
METAR-TAF:

METAR-TAF

Airports :

Georgetown Municipal Airport

Georgetown, Texas, United States

latitude: 30-41N, longitude: 097-41W, elevation: 787 ft

Current weather observation

The report was made 1 hour and 13 minutes ago, at 11:56 UTC
Wind 3 mph from the North
Temperature 36°F
Humidity 87%
Pressure 30.34 in. Hg
Visibility: 10 miles
Clear sky

METAR: KGTU 211156Z 36003KT 10SM CLR 02/00 A3034 RMK AO2 SLP281 T00220000 10050 20006 53000 FZRANO

Time: 07:09 (13:09 UTC)


TAF: missing

Weather observations and forecasts of more than 4000 airports (METAR and TAF reports).

The available stations are represented by yellow and red dots on the map.

Hover mouse over dot to see the name of the station.

Then click to see weather observations and forecasts.

To change the map : click on the green buttons with a black cross to zoom in, on the green button with a dash to zoom out, or on the green arrows for adjacent maps.


METAR-TAF: